Time;durP1;ratioP1;P1;durP2;ratioP2;P2;SDS_P1;SDS_P2;PMS_P1;PMS_P2;Temp;Humidity;BMP_temperature;BMP_pressure;BME280_temperature;BME280_humidity;BME280_pressure;Samples;Min_cycle;Max_cycle;Signal;HPM_P1;HPM_P2
2022/05/16 05:03:43;;;;;;;21.00;5.05;;;13.20;99.90;;;;;;4916645;29;20225;-71
2022/05/16 05:06:09;;;;;;;30.13;6.38;;;13.60;99.90;;;;;;4916806;29;20179;-71
2022/05/16 05:08:34;;;;;;;29.58;9.10;;;13.90;99.90;;;;;;4900601;29;20246;-71
2022/05/16 05:16:30;;;;;;;11.88;4.50;;;14.30;99.90;;;;;;4918025;29;20303;-71
2022/05/16 05:18:56;;;;;;;11.13;4.80;;;14.50;99.90;;;;;;4901030;29;20230;-71
2022/05/16 05:21:22;;;;;;;10.98;4.47;;;14.90;99.90;;;;;;4900660;29;20278;-71
2022/05/16 05:23:47;;;;;;;11.32;4.57;;;15.20;99.90;;;;;;4901534;29;20183;-71
2022/05/16 05:26:14;;;;;;;15.55;4.35;;;15.40;99.90;;;;;;4900713;29;20183;-71
2022/05/16 05:28:40;;;;;;;15.77;4.60;;;15.70;99.90;;;;;;4917661;29;20210;-71
2022/05/16 05:31:14;;;;;;;13.38;4.50;;;15.80;99.90;;;;;;4917560;29;20643;-71
2022/05/16 05:33:41;;;;;;;23.40;4.95;;;16.00;99.90;;;;;;4917285;29;20186;-70
2022/05/16 05:36:08;;;;;;;18.65;4.65;;;16.10;99.90;;;;;;4918295;29;20185;-71
2022/05/16 05:38:36;;;;;;;18.77;4.72;;;16.20;99.90;;;;;;4928203;29;20258;-71
2022/05/16 05:41:05;;;;;;;19.50;4.75;;;16.10;99.90;;;;;;4918435;29;20178;-71
2022/05/16 05:43:31;;;;;;;16.77;4.78;;;16.30;99.90;;;;;;4883063;29;20188;-71
2022/05/16 05:45:57;;;;;;;13.63;4.07;;;16.40;99.90;;;;;;4883137;29;20516;-72
2022/05/16 05:48:23;;;;;;;18.13;4.40;;;16.40;99.90;;;;;;4898423;29;20207;-71
2022/05/16 05:50:48;;;;;;;20.15;4.88;;;16.40;99.90;;;;;;4882614;29;20271;-72
2022/05/16 05:53:14;;;;;;;23.40;5.32;;;16.50;99.90;;;;;;4914926;29;20261;-72
2022/05/16 05:55:40;;;;;;;26.65;5.85;;;16.60;99.90;;;;;;4904850;29;20195;-71
2022/05/16 05:58:10;;;;;;;14.88;5.18;;;16.80;99.90;;;;;;4917407;29;20179;-71
2022/05/16 06:00:35;;;;;;;29.73;6.22;;;16.90;99.90;;;;;;4917856;29;20207;-72
2022/05/16 06:03:01;;;;;;;28.27;5.53;;;17.10;99.90;;;;;;4902737;29;20206;-74
2022/05/16 06:05:27;;;;;;;22.23;5.50;;;17.30;99.90;;;;;;4904379;29;20186;-73
2022/05/16 06:07:53;;;;;;;26.13;5.57;;;17.30;99.70;;;;;;4905880;29;20183;-73
2022/05/16 06:10:20;;;;;;;26.52;5.18;;;17.50;98.80;;;;;;4904941;29;20195;-73
2022/05/16 06:12:46;;;;;;;14.93;4.65;;;17.70;96.70;;;;;;4905794;29;20183;-72
2022/05/16 06:15:13;;;;;;;18.27;5.47;;;17.80;95.80;;;;;;4905284;29;20238;-73
2022/05/16 06:17:39;;;;;;;19.35;5.03;;;17.80;94.40;;;;;;4904641;29;20187;-79
2022/05/16 06:20:07;;;;;;;12.73;4.65;;;17.80;94.30;;;;;;4904702;29;20273;-73
2022/05/16 06:22:37;;;;;;;10.75;4.60;;;18.10;94.70;;;;;;4904827;29;20602;-71
2022/05/16 06:25:34;;;;;;;8.55;3.90;;;18.30;92.50;;;;;;4903660;29;20194;-71
2022/05/16 06:28:09;;;;;;;12.52;4.22;;;18.70;91.30;;;;;;4920618;29;20183;-71
2022/05/16 06:30:37;;;;;;;15.70;4.82;;;19.00;90.50;;;;;;4906418;29;20206;-71
2022/05/16 06:33:03;;;;;;;13.63;3.95;;;19.30;90.40;;;;;;4903963;29;20211;-72
2022/05/16 06:35:28;;;;;;;12.15;4.78;;;19.50;88.90;;;;;;4903969;29;20666;-72
2022/05/16 06:38:38;;;;;;;11.43;4.75;;;19.50;83.30;;;;;;4903415;29;20194;-72
2022/05/16 06:41:04;;;;;;;10.02;4.05;;;19.70;84.00;;;;;;4903469;29;20227;-72
2022/05/16 06:43:30;;;;;;;11.13;4.32;;;19.90;84.70;;;;;;4903487;29;20183;-72
2022/05/16 06:45:56;;;;;;;10.90;4.70;;;20.00;85.80;;;;;;4902966;29;20206;-72
2022/05/16 06:48:22;;;;;;;11.80;4.60;;;19.90;84.50;;;;;;4902529;29;20214;-71
2022/05/16 06:50:48;;;;;;;7.25;3.97;;;19.60;82.50;;;;;;4908412;29;20209;-71
2022/05/16 06:53:20;;;;;;;8.55;4.30;;;19.60;82.50;;;;;;4908885;29;20566;-71
2022/05/16 06:55:45;;;;;;;9.27;4.22;;;19.40;82.20;;;;;;4906172;29;20312;-72
2022/05/16 06:58:11;;;;;;;7.90;3.95;;;19.30;83.90;;;;;;4898627;29;20755;-72
2022/05/16 07:29:51;;;;;;;8.00;3.83;;;20.30;75.40;;;;;;4941090;29;20696;-72
2022/05/16 07:32:17;;;;;;;10.05;4.60;;;20.20;76.80;;;;;;4939541;29;20198;-72
2022/05/16 07:34:44;;;;;;;9.98;4.28;;;20.40;78.40;;;;;;4923436;29;20186;-72
2022/05/16 07:37:10;;;;;;;8.88;4.00;;;20.70;79.30;;;;;;4924152;29;20182;-72
2022/05/16 07:39:38;;;;;;;9.80;4.22;;;21.10;76.40;;;;;;4924591;29;20272;-72
2022/05/16 07:42:07;;;;;;;12.70;4.40;;;21.20;73.10;;;;;;4925293;29;20301;-72
2022/05/16 07:44:36;;;;;;;8.70;4.10;;;21.20;72.90;;;;;;4923895;29;20182;-72
2022/05/16 07:47:02;;;;;;;7.78;4.35;;;21.40;74.00;;;;;;4925370;29;20186;-72
2022/05/16 07:49:28;;;;;;;10.68;3.90;;;21.40;72.50;;;;;;4939842;29;20301;-71
2022/05/16 07:51:53;;;;;;;11.35;3.63;;;21.60;73.00;;;;;;4921463;29;20194;-71
2022/05/16 07:54:19;;;;;;;9.55;4.20;;;21.90;72.00;;;;;;4922086;29;20178;-70
2022/05/16 07:56:44;;;;;;;11.30;4.35;;;22.00;72.10;;;;;;4922380;29;20201;-71
2022/05/16 07:59:10;;;;;;;10.40;4.30;;;22.10;69.60;;;;;;4921978;29;20225;-71
2022/05/16 08:01:36;;;;;;;10.18;4.05;;;21.70;70.60;;;;;;4922146;29;20206;-71
2022/05/16 08:04:06;;;;;;;10.70;4.43;;;21.80;71.50;;;;;;4921389;29;20186;-71
2022/05/16 08:06:32;;;;;;;9.15;4.18;;;22.10;70.50;;;;;;4921023;29;20220;-73
2022/05/16 08:11:42;;;;;;;9.10;3.88;;;22.60;68.80;;;;;;4937870;29;20213;-73
2022/05/16 08:14:08;;;;;;;13.10;4.10;;;23.00;67.80;;;;;;4920876;29;20564;-72
2022/05/16 08:16:34;;;;;;;11.00;4.25;;;23.10;66.30;;;;;;4921098;29;20182;-72
2022/05/16 08:19:00;;;;;;;9.05;3.70;;;23.00;66.50;;;;;;4920855;29;20276;-72
2022/05/16 08:21:25;;;;;;;10.63;4.13;;;22.80;67.00;;;;;;4937754;29;20209;-72
2022/05/16 08:23:51;;;;;;;8.45;3.78;;;22.50;67.70;;;;;;4938039;29;20189;-72
2022/05/16 08:26:17;;;;;;;8.13;3.60;;;22.30;67.90;;;;;;4920800;29;20198;-72
2022/05/16 08:28:43;;;;;;;10.52;3.92;;;22.00;69.00;;;;;;4937812;29;20301;-72
2022/05/16 08:31:09;;;;;;;9.27;3.90;;;22.00;70.40;;;;;;4920564;29;20194;-72
2022/05/16 08:33:38;;;;;;;8.45;4.03;;;22.00;70.40;;;;;;4920560;29;20711;-72
2022/05/16 08:41:43;;;;;;;7.30;4.13;;;22.40;69.20;;;;;;4937604;29;20261;-73
2022/05/16 08:44:29;;;;;;;10.30;4.30;;;22.60;69.00;;;;;;4919587;29;20174;-72
2022/05/16 08:47:13;;;;;;;10.45;3.65;;;22.70;69.60;;;;;;4921139;29;20206;-71
2022/05/16 08:49:44;;;;;;;6.90;4.18;;;22.80;68.30;;;;;;4937316;29;20197;-71
2022/05/16 08:52:19;;;;;;;9.25;4.18;;;22.80;69.20;;;;;;4936448;29;20604;-71
2022/05/16 08:54:51;;;;;;;10.50;4.03;;;22.60;69.80;;;;;;4936021;29;20174;-71
2022/05/16 08:57:36;;;;;;;10.25;4.25;;;22.40;70.50;;;;;;4937285;29;20170;-71
2022/05/16 09:00:29;;;;;;;9.50;4.40;;;22.40;71.00;;;;;;4920188;29;20186;-71
2022/05/16 09:02:56;;;;;;;8.60;4.22;;;22.10;71.60;;;;;;4919865;29;20774;-71
2022/05/16 09:05:34;;;;;;;6.22;4.07;;;21.90;73.10;;;;;;4923075;29;20581;-72
2022/05/16 09:08:00;;;;;;;9.18;4.35;;;21.70;75.00;;;;;;4920069;29;20265;-73
2022/05/16 09:10:40;;;;;;;8.02;4.30;;;21.40;75.60;;;;;;4939915;29;20213;-77
2022/05/16 09:13:30;;;;;;;31.50;5.90;;;21.20;76.00;;;;;;4938704;29;20198;-73
2022/05/16 09:16:27;;;;;;;22.58;5.13;;;20.80;77.30;;;;;;4939036;29;20700;-72
2022/05/16 09:19:07;;;;;;;14.93;5.22;;;20.40;81.00;;;;;;4939103;29;20269;-72
2022/05/16 09:22:02;;;;;;;19.95;6.65;;;20.00;89.70;;;;;;4919880;29;20672;-71
2022/05/16 09:24:35;;;;;;;20.50;6.15;;;19.50;97.50;;;;;;4935677;29;20182;-71
2022/05/16 09:28:34;;;;;;;21.48;9.85;;;19.10;99.90;;;;;;4920009;29;20179;-71
2022/05/16 09:30:07;;;;;;;22.80;11.82;;;18.80;99.90;;;;;;4936336;29;20264;-71
2022/05/16 09:36:04;;;;;;;18.52;8.25;;;18.30;99.90;;;;;;4936789;29;20216;-71
2022/05/16 09:38:31;;;;;;;15.48;7.68;;;18.30;99.90;;;;;;4920149;29;20198;-71
2022/05/16 09:40:59;;;;;;;18.25;8.80;;;18.40;99.90;;;;;;4932582;29;20182;-71
2022/05/16 09:43:29;;;;;;;15.00;7.03;;;18.40;99.90;;;;;;4935117;29;20198;-71
2022/05/16 09:46:19;;;;;;;12.32;6.90;;;18.70;99.90;;;;;;4916523;29;20182;-71
2022/05/16 09:48:44;;;;;;;10.10;6.35;;;18.90;99.90;;;;;;4916077;29;20198;-72
2022/05/16 09:51:10;;;;;;;14.73;7.10;;;19.10;99.90;;;;;;4917277;29;20198;-71
2022/05/16 09:53:45;;;;;;;10.75;6.32;;;19.20;99.90;;;;;;4919434;29;20548;-71
2022/05/16 09:56:30;;;;;;;9.07;6.38;;;19.20;99.90;;;;;;4936512;29;20260;-71
2022/05/16 09:59:02;;;;;;;13.95;7.70;;;19.00;99.90;;;;;;4938106;29;20163;-73
2022/05/16 10:01:35;;;;;;;10.80;6.75;;;18.80;99.90;;;;;;4938965;29;20236;-72
2022/05/16 10:04:18;;;;;;;18.65;12.40;;;18.80;99.90;;;;;;4937668;29;20182;-71
2022/05/16 10:06:57;;;;;;;40.80;25.52;;;18.90;99.90;;;;;;4917456;29;20171;-71
2022/05/16 10:09:48;;;;;;;12.68;8.05;;;19.20;99.90;;;;;;4919402;29;20202;-71
2022/05/16 10:12:17;;;;;;;17.52;10.82;;;19.50;99.90;;;;;;4912501;29;20218;-71
2022/05/16 10:14:43;;;;;;;17.70;8.82;;;19.80;99.90;;;;;;4919028;29;20213;-71
2022/05/16 10:17:12;;;;;;;15.75;8.27;;;19.90;99.90;;;;;;4919127;29;20213;-71
2022/05/16 10:19:40;;;;;;;11.20;6.63;;;20.30;99.90;;;;;;4919490;29;20182;-71
2022/05/16 10:22:12;;;;;;;9.23;7.65;;;20.40;99.90;;;;;;4936111;29;20197;-71
2022/05/16 10:24:42;;;;;;;8.65;5.50;;;20.60;99.90;;;;;;4918990;29;20186;-71
2022/05/16 10:27:11;;;;;;;14.35;5.93;;;20.80;99.90;;;;;;4919281;29;20178;-71
2022/05/16 10:29:40;;;;;;;15.30;5.80;;;21.10;99.90;;;;;;4935615;29;20202;-71
2022/05/16 10:35:16;;;;;;;9.23;5.53;;;21.40;99.90;;;;;;4936149;29;20568;-71
2022/05/16 10:37:46;;;;;;;9.30;5.10;;;21.20;99.90;;;;;;4919113;29;20186;-71
2022/05/16 10:40:29;;;;;;;6.53;4.93;;;21.00;99.90;;;;;;4935656;29;20190;-71
2022/05/16 10:43:22;;;;;;;10.10;5.88;;;20.60;99.90;;;;;;4918782;29;20225;-71
2022/05/16 10:45:55;;;;;;;8.77;5.03;;;20.60;99.90;;;;;;4934365;29;20193;-72
2022/05/16 10:48:29;;;;;;;10.05;4.97;;;20.70;99.90;;;;;;4934850;29;20330;-72
2022/05/16 10:51:07;;;;;;;7.78;4.80;;;21.10;99.90;;;;;;4935569;29;20718;-73
2022/05/16 10:53:45;;;;;;;7.57;5.35;;;21.40;99.20;;;;;;4918643;29;20166;-73
2022/05/16 10:56:31;;;;;;;5.95;4.68;;;21.50;98.70;;;;;;4918769;29;20223;-73
2022/05/16 10:59:25;;;;;;;10.20;4.97;;;21.40;99.70;;;;;;4918716;29;20166;-71
2022/05/16 11:02:07;;;;;;;8.90;4.82;;;21.40;99.90;;;;;;4931469;29;20691;-71
2022/05/16 11:04:36;;;;;;;7.30;4.93;;;21.60;99.90;;;;;;4917670;29;20175;-71
2022/05/16 11:07:26;;;;;;;8.45;5.28;;;21.90;99.90;;;;;;4921521;29;20185;-73
2022/05/16 11:10:13;;;;;;;9.25;5.00;;;22.20;97.90;;;;;;4939066;29;20206;-72
2022/05/16 11:12:51;;;;;;;8.90;4.60;;;22.70;96.00;;;;;;4938877;29;20208;-72
2022/05/16 11:15:52;;;;;;;8.75;4.68;;;22.50;91.20;;;;;;4925452;29;20182;-72
2022/05/16 11:18:34;;;;;;;14.50;5.45;;;22.20;91.00;;;;;;4922124;29;20177;-72
2022/05/16 11:21:42;;;;;;;11.15;4.95;;;21.80;92.70;;;;;;4922179;29;20186;-72
2022/05/16 11:24:13;;;;;;;11.07;4.75;;;21.80;94.00;;;;;;4864533;29;20286;-72
2022/05/16 11:26:54;;;;;;;7.30;4.85;;;22.20;93.60;;;;;;4909356;29;20217;-71
2022/05/16 11:30:03;;;;;;;6.72;4.53;;;22.70;91.80;;;;;;4918873;29;20290;-71
2022/05/16 11:32:56;;;;;;;17.25;5.50;;;23.20;88.90;;;;;;4874037;29;20670;-71
2022/05/16 11:35:34;;;;;;;13.10;5.45;;;23.70;86.90;;;;;;4924506;29;20182;-72
2022/05/16 11:38:09;;;;;;;8.40;4.90;;;23.90;82.00;;;;;;4938038;29;20166;-72
2022/05/16 11:40:46;;;;;;;10.55;4.90;;;24.10;80.90;;;;;;4937085;29;20217;-72
2022/05/16 11:43:26;;;;;;;19.60;5.93;;;24.30;79.90;;;;;;4921272;29;20212;-72
2022/05/16 11:46:31;;;;;;;14.63;5.50;;;24.50;78.50;;;;;;4937188;29;20186;-72
2022/05/16 11:49:12;;;;;;;9.57;4.35;;;24.50;80.00;;;;;;4921636;29;20205;-72
2022/05/16 11:51:52;;;;;;;7.03;4.47;;;24.80;80.00;;;;;;4938679;29;20208;-72
2022/05/16 11:54:24;;;;;;;7.22;4.47;;;24.90;77.90;;;;;;4941047;29;20174;-72
2022/05/16 12:02:27;;;;;;;8.50;5.03;;;24.60;75.90;;;;;;4940786;29;20288;-71
2022/05/16 12:05:34;;;;;;;7.47;4.68;;;24.30;77.90;;;;;;4920758;29;20190;-71
2022/05/16 12:08:11;;;;;;;6.65;4.90;;;24.00;79.00;;;;;;4908266;29;20191;-71
2022/05/16 12:10:58;;;;;;;7.32;4.57;;;23.50;82.00;;;;;;4939351;29;20180;-72
2022/05/16 12:13:28;;;;;;;7.10;4.75;;;23.40;85.40;;;;;;4924539;29;20225;-72
2022/05/16 12:16:12;;;;;;;10.70;5.00;;;23.20;84.40;;;;;;4923101;29;20190;-71
2022/05/16 12:18:40;;;;;;;12.70;4.90;;;23.20;83.60;;;;;;4939552;29;20186;-72
2022/05/16 12:21:31;;;;;;;6.35;4.80;;;23.10;83.60;;;;;;4923364;29;20225;-72
2022/05/16 12:24:17;;;;;;;7.85;5.53;;;23.10;83.60;;;;;;4920998;29;20182;-72
2022/05/16 12:26:44;;;;;;;9.70;5.38;;;23.00;83.90;;;;;;4937441;29;20727;-72
2022/05/16 12:29:09;;;;;;;9.32;5.53;;;22.90;83.20;;;;;;4937845;29;20645;-72
2022/05/16 12:31:50;;;;;;;7.93;5.28;;;22.80;84.00;;;;;;4937317;29;20260;-71
2022/05/16 12:34:33;;;;;;;10.30;5.50;;;22.70;87.20;;;;;;4937793;29;20174;-71
2022/05/16 12:37:06;;;;;;;9.98;5.88;;;22.80;88.80;;;;;;4920664;29;20245;-71
2022/05/16 12:39:51;;;;;;;7.15;4.90;;;23.00;89.70;;;;;;4921441;29;20182;-72
2022/05/16 12:42:28;;;;;;;7.95;5.10;;;23.30;88.70;;;;;;4937190;29;20194;-72
2022/05/16 12:44:58;;;;;;;9.75;5.63;;;23.70;87.10;;;;;;4937708;29;20204;-72
2022/05/16 12:47:59;;;;;;;9.85;5.32;;;24.00;85.00;;;;;;4937195;29;20175;-71
2022/05/16 12:50:52;;;;;;;6.28;5.10;;;24.40;83.10;;;;;;4905264;29;20221;-71
2022/05/16 12:53:24;;;;;;;11.57;5.65;;;24.60;83.00;;;;;;4936262;29;20680;-72
2022/05/16 12:55:55;;;;;;;7.85;5.20;;;24.70;82.60;;;;;;4936501;29;20198;-71
2022/05/16 12:59:03;;;;;;;5.78;5.18;;;25.00;82.10;;;;;;4920125;29;20226;-71
2022/05/16 13:01:41;;;;;;;8.73;5.15;;;25.50;80.00;;;;;;4912651;29;20213;-71
2022/05/16 13:04:54;;;;;;;5.28;4.32;;;25.90;79.20;;;;;;4935828;29;20597;-72
2022/05/16 13:07:53;;;;;;;6.93;5.10;;;25.80;78.00;;;;;;4875996;29;20588;-72
2022/05/16 13:10:42;;;;;;;8.73;4.82;;;25.50;77.00;;;;;;4878483;29;20197;-72
2022/05/16 13:13:09;;;;;;;7.43;5.20;;;25.20;79.60;;;;;;4914929;29;20210;-71
2022/05/16 13:15:39;;;;;;;12.98;5.45;;;24.90;82.50;;;;;;4919675;29;20225;-71
2022/05/16 13:18:11;;;;;;;10.48;5.50;;;24.50;79.50;;;;;;4919726;29;20281;-72
2022/05/16 13:20:42;;;;;;;8.90;5.15;;;24.20;81.20;;;;;;4919578;29;20211;-72
2022/05/16 13:23:08;;;;;;;5.15;4.65;;;24.10;84.90;;;;;;4919665;29;20229;-72
2022/05/16 13:29:21;;;;;;;11.15;5.25;;;24.10;85.10;;;;;;4936737;29;20223;-72
2022/05/16 13:31:06;;;;;;;7.07;4.50;;;24.20;83.70;;;;;;4936597;29;20264;-72
2022/05/16 13:33:36;;;;;;;10.07;4.72;;;24.20;86.10;;;;;;4919451;29;20274;-72
2022/05/16 13:36:22;;;;;;;6.47;4.95;;;24.20;85.30;;;;;;4919030;29;20186;-71
2022/05/16 13:39:11;;;;;;;7.93;5.05;;;24.20;86.30;;;;;;4917672;29;20194;-72
2022/05/16 13:41:37;;;;;;;7.80;4.85;;;24.20;85.60;;;;;;4925854;29;20338;-71
2022/05/16 13:44:04;;;;;;;10.65;4.80;;;24.50;84.60;;;;;;4936255;29;20626;-73
2022/05/16 13:46:31;;;;;;;6.28;4.22;;;24.90;84.10;;;;;;4924051;29;20561;-72
2022/05/16 13:49:00;;;;;;;8.95;4.53;;;25.30;82.00;;;;;;4936523;29;20200;-72
2022/05/16 13:51:26;;;;;;;9.95;4.68;;;25.50;77.60;;;;;;4919477;29;20186;-72
2022/05/16 13:53:52;;;;;;;5.38;4.40;;;25.60;76.60;;;;;;4936231;29;20245;-72
2022/05/16 13:56:35;;;;;;;7.72;4.43;;;25.70;76.70;;;;;;4935874;29;20586;-72
2022/05/16 13:59:00;;;;;;;9.70;4.30;;;25.70;76.20;;;;;;4919144;29;20179;-72
2022/05/16 14:01:26;;;;;;;8.98;4.40;;;25.50;76.50;;;;;;4918917;29;20186;-72
2022/05/16 14:03:55;;;;;;;9.02;4.30;;;25.60;77.30;;;;;;4919074;29;20178;-72
2022/05/16 14:06:39;;;;;;;8.98;4.60;;;25.60;76.80;;;;;;4919422;29;20657;-71
2022/05/16 14:09:12;;;;;;;5.90;4.35;;;25.70;77.50;;;;;;4935961;29;20198;-71
2022/05/16 14:11:37;;;;;;;7.97;4.35;;;25.60;78.10;;;;;;4918791;29;20202;-71
2022/05/16 14:14:03;;;;;;;9.65;4.50;;;25.50;77.60;;;;;;4919218;29;20182;-71
2022/05/16 14:16:33;;;;;;;9.23;4.90;;;25.30;77.30;;;;;;4935791;29;20171;-71
2022/05/16 14:19:10;;;;;;;6.90;4.78;;;25.10;78.30;;;;;;4919185;29;20271;-71
2022/05/16 14:21:52;;;;;;;11.40;4.72;;;24.80;79.50;;;;;;4918875;29;20205;-72
2022/05/16 14:24:25;;;;;;;8.52;4.82;;;24.40;81.60;;;;;;4935973;29;20189;-72
2022/05/16 14:26:52;;;;;;;8.88;4.63;;;24.20;82.40;;;;;;4935801;29;20255;-72
2022/05/16 14:29:25;;;;;;;11.85;4.47;;;23.90;84.20;;;;;;4918803;29;20236;-72
2022/05/16 14:32:06;;;;;;;11.38;4.75;;;23.80;85.40;;;;;;4934536;29;20213;-71
2022/05/16 14:34:37;;;;;;;10.05;4.60;;;23.60;87.60;;;;;;4918724;29;20178;-71
2022/05/16 14:37:25;;;;;;;9.35;4.75;;;23.40;88.30;;;;;;4918757;29;20210;-71
2022/05/16 14:40:02;;;;;;;10.75;4.60;;;23.20;90.00;;;;;;4935760;29;20654;-72
2022/05/16 14:42:32;;;;;;;8.55;4.40;;;23.10;91.00;;;;;;4921689;29;20756;-71
2022/05/16 14:45:15;;;;;;;11.20;4.85;;;22.90;91.90;;;;;;4939413;29;20230;-72
2022/05/16 14:47:53;;;;;;;13.25;5.20;;;22.80;92.80;;;;;;4939419;29;20645;-72
2022/05/16 14:50:25;;;;;;;11.35;5.53;;;22.70;94.20;;;;;;4922279;29;20202;-72
2022/05/16 14:52:54;;;;;;;10.88;4.95;;;22.50;95.40;;;;;;4934497;29;20205;-72
2022/05/16 14:55:27;;;;;;;7.35;4.70;;;22.20;94.60;;;;;;4937969;29;20218;-71
2022/05/16 14:57:53;;;;;;;9.98;5.20;;;21.90;96.30;;;;;;4937845;29;20178;-71
2022/05/16 15:05:48;;;;;;;8.70;4.10;;;20.80;99.90;;;;;;4939193;29;20173;-71
2022/05/16 15:08:19;;;;;;;14.82;4.60;;;20.20;99.90;;;;;;4921930;29;20559;-71
2022/05/16 15:10:44;;;;;;;8.10;4.22;;;19.80;99.90;;;;;;4937816;29;20170;-71
2022/05/16 15:13:11;;;;;;;8.40;4.60;;;19.70;99.90;;;;;;4921866;29;20209;-71
2022/05/16 15:15:36;;;;;;;9.10;4.03;;;19.60;99.90;;;;;;4921763;29;20542;-71
2022/05/16 15:18:02;;;;;;;9.15;4.28;;;19.70;99.90;;;;;;4921958;29;20212;-72
2022/05/16 15:20:28;;;;;;;9.30;3.95;;;19.70;99.90;;;;;;4922188;29;20182;-72
2022/05/16 15:22:55;;;;;;;7.40;4.47;;;19.50;99.90;;;;;;4921387;29;20229;-72
2022/05/16 15:25:21;;;;;;;11.18;4.30;;;19.40;99.90;;;;;;4922238;29;20198;-72
2022/05/16 15:27:46;;;;;;;8.85;3.97;;;19.30;99.90;;;;;;4932632;29;20183;-73
2022/05/16 15:30:12;;;;;;;8.02;3.72;;;19.20;99.90;;;;;;4939512;29;20724;-72
2022/05/16 15:32:39;;;;;;;5.78;3.60;;;19.20;99.90;;;;;;4921941;29;20252;-72
2022/05/16 15:35:05;;;;;;;7.45;3.70;;;19.10;99.90;;;;;;4922013;29;20546;-72
2022/05/16 15:37:32;;;;;;;7.80;3.67;;;19.20;99.90;;;;;;4938904;29;20178;-72
2022/05/16 15:39:58;;;;;;;6.80;3.63;;;19.30;99.90;;;;;;4925956;29;20190;-73
2022/05/16 15:42:27;;;;;;;6.03;3.40;;;19.30;99.90;;;;;;4942632;29;20525;-72
2022/05/16 15:44:54;;;;;;;8.68;3.90;;;19.40;99.90;;;;;;4922921;29;20657;-72
2022/05/16 15:47:23;;;;;;;7.70;3.90;;;19.60;99.90;;;;;;4922194;29;20186;-72
2022/05/16 15:49:50;;;;;;;8.18;3.90;;;19.80;99.90;;;;;;4921789;29;20198;-72
2022/05/16 15:52:17;;;;;;;8.18;3.80;;;20.00;99.90;;;;;;4937644;29;20197;-71
2022/05/16 15:54:43;;;;;;;8.75;3.78;;;20.20;99.90;;;;;;4921494;29;20229;-71
2022/05/16 15:57:09;;;;;;;5.05;3.60;;;20.30;99.90;;;;;;4921050;29;20174;-72
2022/05/16 15:59:47;;;;;;;6.70;3.97;;;20.30;99.90;;;;;;4928955;29;20197;-71
2022/05/16 16:02:19;;;;;;;8.70;3.97;;;20.50;99.90;;;;;;4918510;29;20297;-71
2022/05/16 16:10:28;;;;;;;5.38;3.97;;;20.70;99.90;;;;;;4938215;29;20234;-71
2022/05/16 16:12:54;;;;;;;7.65;4.15;;;20.70;99.90;;;;;;4929047;29;20208;-71
2022/05/16 16:15:20;;;;;;;5.80;3.90;;;20.50;99.90;;;;;;4920745;29;20277;-71
2022/05/16 16:17:53;;;;;;;8.05;3.95;;;20.70;99.90;;;;;;4920849;29;20641;-71
2022/05/16 16:20:19;;;;;;;17.10;4.90;;;20.80;99.90;;;;;;4921038;29;20704;-71
2022/05/16 16:22:46;;;;;;;7.88;4.47;;;21.00;99.90;;;;;;4920957;29;20660;-71
2022/05/16 16:25:21;;;;;;;8.25;3.90;;;21.20;99.90;;;;;;4920725;29;20194;-71
2022/05/16 16:27:46;;;;;;;7.18;4.00;;;21.40;99.90;;;;;;4920662;29;20186;-71
2022/05/16 16:30:50;;;;;;;6.53;3.60;;;21.60;99.90;;;;;;4921615;29;20684;-71
2022/05/16 16:33:17;;;;;;;5.00;3.78;;;21.70;99.90;;;;;;4920575;29;20205;-72
2022/05/16 16:35:43;;;;;;;6.88;4.20;;;21.70;99.90;;;;;;4920565;29;20257;-71
2022/05/16 16:38:28;;;;;;;6.20;4.18;;;21.60;99.90;;;;;;4921570;29;20178;-71
2022/05/16 16:44:16;;;;;;;8.98;3.95;;;21.70;99.90;;;;;;4937694;29;20166;-71
2022/05/16 16:46:44;;;;;;;8.48;4.05;;;21.50;99.90;;;;;;4920328;29;20189;-71
2022/05/16 16:58:17;;;;;;;5.25;3.50;;;20.80;99.90;;;;;;4937781;29;20191;-72
2022/05/16 17:04:04;;;;;;;7.72;4.28;;;20.80;99.90;;;;;;4936651;29;20633;-72
2022/05/16 17:06:31;;;;;;;10.80;4.00;;;20.70;99.90;;;;;;4920300;29;20182;-72
2022/05/16 17:08:57;;;;;;;6.47;3.85;;;20.70;99.90;;;;;;4919823;29;20202;-72
2022/05/16 17:11:24;;;;;;;7.65;4.00;;;20.60;99.90;;;;;;4919808;29;20174;-73
2022/05/16 17:13:57;;;;;;;7.95;4.10;;;20.60;99.90;;;;;;4936765;29;20333;-72
2022/05/16 17:16:23;;;;;;;6.65;4.50;;;20.50;99.90;;;;;;4935699;29;20633;-71
2022/05/16 17:18:48;;;;;;;9.85;4.30;;;20.50;99.90;;;;;;4937024;29;20188;-71
2022/05/16 17:21:16;;;;;;;7.75;4.80;;;20.40;99.90;;;;;;4919944;29;20249;-71
2022/05/16 17:23:51;;;;;;;10.40;4.90;;;20.40;99.90;;;;;;4919825;29;20233;-72
2022/05/16 17:26:17;;;;;;;6.20;4.50;;;20.40;99.90;;;;;;4919971;29;20257;-73
2022/05/16 17:28:47;;;;;;;6.75;4.18;;;20.40;99.90;;;;;;4936560;29;20268;-71
2022/05/16 17:31:20;;;;;;;9.32;4.47;;;20.50;99.90;;;;;;4919554;29;20282;-71
2022/05/16 17:34:02;;;;;;;10.68;4.63;;;20.50;99.90;;;;;;4919627;29;20253;-71
2022/05/16 17:36:28;;;;;;;7.22;4.25;;;20.50;99.90;;;;;;4919566;29;20166;-71
2022/05/16 17:38:54;;;;;;;6.75;4.43;;;20.40;99.90;;;;;;4936072;29;20720;-71
2022/05/16 17:41:23;;;;;;;9.07;4.55;;;20.30;99.90;;;;;;4918678;29;20209;-71
2022/05/16 17:43:49;;;;;;;6.03;4.45;;;20.10;99.90;;;;;;4919986;29;20212;-71
2022/05/16 17:46:23;;;;;;;8.20;4.45;;;20.10;99.90;;;;;;4919372;29;20201;-71
2022/05/16 17:48:49;;;;;;;6.32;4.50;;;20.10;99.90;;;;;;4935091;29;20241;-71
2022/05/16 17:51:28;;;;;;;8.20;4.68;;;20.10;99.90;;;;;;4934983;29;20205;-71
2022/05/16 17:54:09;;;;;;;7.10;4.45;;;20.10;99.90;;;;;;4919061;29;20167;-71
2022/05/16 17:56:36;;;;;;;11.75;4.30;;;20.10;99.90;;;;;;4936415;29;20174;-71
2022/05/16 17:59:04;;;;;;;9.05;4.25;;;20.10;99.90;;;;;;4919212;29;20230;-72
2022/05/16 18:01:36;;;;;;;6.65;4.22;;;20.00;99.90;;;;;;4919009;29;20224;-72
2022/05/16 18:04:05;;;;;;;6.25;4.20;;;20.00;99.90;;;;;;4920136;29;20177;-72
2022/05/16 18:06:34;;;;;;;8.70;4.30;;;20.00;99.90;;;;;;4919432;29;20270;-72
2022/05/16 18:09:02;;;;;;;7.25;4.35;;;19.90;99.90;;;;;;4919100;29;20669;-72
2022/05/16 18:14:18;;;;;;;7.38;4.10;;;19.80;99.90;;;;;;4936532;29;20176;-72
2022/05/16 18:16:46;;;;;;;9.18;4.13;;;19.70;99.90;;;;;;4943695;29;20174;-72
2022/05/16 18:19:12;;;;;;;5.93;3.50;;;19.70;99.90;;;;;;4927159;29;20174;-72
2022/05/16 18:21:41;;;;;;;7.05;3.63;;;19.60;99.90;;;;;;4946118;29;20190;-72
2022/05/16 18:24:09;;;;;;;4.95;3.30;;;19.60;99.90;;;;;;4922979;29;20205;-71
2022/05/16 18:26:36;;;;;;;8.38;3.50;;;19.50;99.90;;;;;;4938113;29;20190;-72
2022/05/16 18:29:01;;;;;;;4.40;3.42;;;19.40;99.90;;;;;;4922067;29;20312;-72
2022/05/16 18:31:27;;;;;;;6.03;3.60;;;19.30;99.90;;;;;;4939637;29;20265;-72
2022/05/16 18:33:52;;;;;;;7.43;3.72;;;19.30;99.90;;;;;;4923367;29;20175;-72
2022/05/16 18:36:18;;;;;;;10.63;3.88;;;19.20;99.90;;;;;;4939757;29;20181;-72
2022/05/16 18:38:44;;;;;;;5.30;4.00;;;19.20;99.90;;;;;;4922454;29;20232;-71
2022/05/16 18:41:13;;;;;;;13.43;3.75;;;19.20;99.90;;;;;;4922464;29;20257;-71
2022/05/16 18:50:43;;;;;;;10.00;3.60;;;19.00;99.90;;;;;;4940169;29;20201;-72
2022/05/16 18:52:03;;;;;;;12.18;3.70;;;18.90;99.90;;;;;;4939682;29;20205;-72
2022/05/16 18:54:30;;;;;;;17.50;3.90;;;18.80;99.90;;;;;;4922414;29;20198;-72
2022/05/16 18:56:56;;;;;;;8.95;3.60;;;18.80;99.90;;;;;;4923274;29;20185;-78
2022/05/16 18:59:21;;;;;;;5.05;3.60;;;18.70;99.90;;;;;;4924038;29;20182;-72
2022/05/16 19:01:47;;;;;;;5.85;4.00;;;18.70;99.90;;;;;;4937944;29;20202;-74
2022/05/16 19:04:13;;;;;;;7.97;3.55;;;18.70;99.90;;;;;;4922478;29;20637;-71
2022/05/16 19:06:39;;;;;;;8.20;3.75;;;18.60;99.90;;;;;;4922123;29;20179;-71
2022/05/16 19:09:04;;;;;;;5.68;3.63;;;18.60;99.90;;;;;;4922394;29;20202;-72
2022/05/16 19:11:44;;;;;;;6.32;3.92;;;18.50;99.90;;;;;;4922017;29;20205;-72
2022/05/16 19:14:11;;;;;;;9.18;4.30;;;18.40;99.90;;;;;;4922115;29;20569;-71
2022/05/16 19:16:37;;;;;;;5.68;4.35;;;18.40;99.90;;;;;;4922276;29;20253;-71
2022/05/16 19:19:04;;;;;;;8.88;4.80;;;18.40;99.90;;;;;;4921947;29;20209;-71
2022/05/16 19:21:34;;;;;;;8.45;4.50;;;18.40;99.90;;;;;;4939207;29;20249;-71
2022/05/16 19:24:00;;;;;;;7.18;4.45;;;18.30;99.90;;;;;;4922541;29;20185;-71
2022/05/16 19:26:25;;;;;;;7.97;4.30;;;18.40;99.90;;;;;;4921220;29;20206;-72
2022/05/16 19:34:19;;;;;;;8.15;4.60;;;18.20;99.90;;;;;;4938931;29;20174;-71
2022/05/16 19:36:45;;;;;;;6.43;4.20;;;18.30;99.90;;;;;;4937718;29;20186;-71
2022/05/16 19:39:11;;;;;;;7.10;4.85;;;18.30;99.90;;;;;;4937640;29;20190;-71
2022/05/16 19:41:36;;;;;;;6.65;4.90;;;18.30;99.90;;;;;;4921498;29;20277;-71
2022/05/16 19:44:04;;;;;;;11.43;4.93;;;18.20;99.90;;;;;;4921486;29;20182;-71
2022/05/16 19:46:30;;;;;;;6.95;4.88;;;18.30;99.90;;;;;;4922378;29;20189;-71
2022/05/16 19:48:56;;;;;;;6.15;4.85;;;18.30;99.90;;;;;;4922250;29;20206;-71
2022/05/16 19:51:22;;;;;;;9.63;5.45;;;18.30;99.90;;;;;;4921678;29;20713;-73